createdAt,value
2019-05-03T05:24:25.959Z,5396.00
2019-05-03T05:25:26.085Z,5268.00
2019-05-03T05:26:25.983Z,5104.00
2019-05-03T05:27:26.212Z,5892.00
2019-05-03T05:28:26.012Z,8100.00
2019-05-03T05:29:26.115Z,15712.00
2019-05-03T05:30:26.153Z,13116.00
2019-05-03T05:31:26.084Z,17952.00
2019-05-03T05:32:26.013Z,18080.00
2019-05-03T05:33:26.253Z,18080.00
2019-05-03T05:34:26.211Z,18112.00
2019-05-03T05:35:26.006Z,18144.00
2019-05-03T05:36:26.029Z,18144.00
2019-05-03T05:37:26.024Z,18048.00
2019-05-03T05:38:26.098Z,17920.00
2019-05-03T05:39:26.012Z,17760.00
2019-05-03T05:40:26.047Z,18048.00
2019-05-03T05:41:26.148Z,17280.00
2019-05-03T05:42:26.057Z,16960.00
2019-05-03T05:43:26.169Z,16032.00
2019-05-03T05:44:26.185Z,15392.00
2019-05-03T05:45:26.198Z,18112.00
2019-05-03T05:46:26.625Z,17984.00
2019-05-03T05:47:26.067Z,17760.00
2019-05-03T05:48:26.200Z,16864.00
2019-05-03T05:49:26.326Z,17760.00
2019-05-03T05:50:26.350Z,15200.00
2019-05-03T05:51:26.122Z,10772.00
2019-05-03T05:52:26.075Z,10528.00
2019-05-03T05:53:26.105Z,7252.00
2019-05-03T05:54:26.087Z,8268.00
2019-05-03T05:55:26.078Z,9720.00
2019-05-03T05:56:26.107Z,12252.00
2019-05-03T05:57:26.131Z,13072.00
2019-05-03T05:58:26.124Z,11384.00
2019-05-03T05:59:26.161Z,16384.00
2019-05-03T06:00:26.147Z,18848.00
2019-05-03T06:01:26.130Z,18752.00
2019-05-03T06:02:26.170Z,18752.00
2019-05-03T06:03:26.209Z,18784.00
2019-05-03T06:04:26.169Z,18816.00
2019-05-03T06:05:26.171Z,18752.00
2019-05-03T06:06:26.183Z,19040.00
2019-05-03T06:07:26.199Z,19200.00
2019-05-03T06:08:26.207Z,19264.00
2019-05-03T06:09:26.242Z,19424.00
2019-05-03T06:10:26.246Z,18752.00
2019-05-03T06:11:26.268Z,12252.00
2019-05-03T06:12:26.243Z,18336.00
2019-05-03T06:13:26.476Z,18656.00
2019-05-03T06:14:26.298Z,18592.00
2019-05-03T06:15:26.787Z,18752.00
2019-05-03T06:16:26.278Z,19808.00
2019-05-03T06:17:26.287Z,5168.00
2019-05-03T06:18:26.312Z,15808.00
2019-05-03T06:19:26.340Z,18272.00
2019-05-03T06:20:26.395Z,17696.00
2019-05-03T06:21:26.345Z,18016.00
2019-05-03T06:22:26.383Z,18208.00
2019-05-03T06:23:26.356Z,11560.00
2019-05-03T06:24:26.389Z,20096.00
2019-05-03T06:25:26.755Z,19104.00
2019-05-03T06:26:26.397Z,7372.00
2019-05-03T06:27:26.425Z,18784.00
2019-05-03T06:28:26.414Z,15936.00
2019-05-03T06:29:26.437Z,18848.00
2019-05-03T06:30:26.416Z,9184.00
2019-05-03T06:31:26.489Z,18880.00
2019-05-03T06:32:26.430Z,20192.00
2019-05-03T06:33:26.475Z,17728.00
2019-05-03T06:34:26.443Z,19744.00
2019-05-03T06:35:26.466Z,7996.00
2019-05-03T06:36:26.471Z,7392.00
2019-05-03T06:37:26.513Z,15080.00
2019-05-03T06:38:26.523Z,14448.00
2019-05-03T06:39:26.532Z,12960.00
2019-05-03T06:40:26.539Z,13628.00
2019-05-03T06:41:26.531Z,4852.00
2019-05-03T06:42:26.552Z,5788.00
2019-05-03T06:43:26.554Z,13984.00
2019-05-03T06:44:28.617Z,11668.00
2019-05-03T06:45:26.568Z,7924.00
2019-05-03T06:46:30.263Z,6572.00
2019-05-03T06:47:28.536Z,7532.00
2019-05-03T06:48:28.139Z,8224.00
2019-05-03T06:49:26.651Z,10324.00
2019-05-03T06:50:28.930Z,8648.00
2019-05-03T06:51:26.643Z,7420.00
2019-05-03T06:52:29.322Z,8624.00
2019-05-03T06:53:26.698Z,9124.00
2019-05-03T06:54:29.867Z,9128.00
2019-05-03T06:55:26.747Z,9544.00
2019-05-03T06:56:29.080Z,8440.00
2019-05-03T06:57:26.791Z,6184.00
2019-05-03T06:58:33.211Z,6560.00
2019-05-03T06:59:26.692Z,8508.00
2019-05-03T07:00:26.706Z,7172.00
2019-05-03T07:01:26.779Z,6204.00
2019-05-03T07:02:28.555Z,5984.00
2019-05-03T07:03:26.747Z,7724.00
2019-05-03T07:04:26.733Z,9156.00
2019-05-03T07:05:26.740Z,8024.00
2019-05-03T07:06:34.570Z,6288.00
2019-05-03T07:07:28.035Z,5904.00
2019-05-03T07:08:26.869Z,6288.00
2019-05-03T07:09:26.785Z,7020.00
2019-05-03T07:10:26.884Z,7536.00
2019-05-03T07:11:26.860Z,9296.00
2019-05-03T07:12:26.916Z,11164.00
2019-05-03T07:13:26.823Z,11812.00
2019-05-03T07:14:27.150Z,10608.00
2019-05-03T07:15:26.801Z,9400.00
2019-05-03T07:16:27.118Z,8268.00
2019-05-03T07:17:26.831Z,10024.00
2019-05-03T07:18:26.924Z,10304.00
2019-05-03T07:19:26.847Z,11220.00
2019-05-03T07:20:26.870Z,9528.00
2019-05-03T07:21:26.880Z,9376.00
2019-05-03T07:22:26.862Z,11524.00
2019-05-03T07:23:26.859Z,11228.00
2019-05-03T07:24:26.930Z,9844.00
2019-05-03T07:25:26.901Z,8012.00
2019-05-03T07:26:26.881Z,7100.00
2019-05-03T07:27:26.934Z,7704.00
2019-05-03T07:28:26.923Z,8860.00
2019-05-03T07:29:26.941Z,7824.00
2019-05-03T07:30:26.918Z,6544.00
2019-05-03T07:31:26.932Z,5760.00
2019-05-03T07:32:26.934Z,5812.00
2019-05-03T07:33:26.958Z,6560.00
2019-05-03T07:34:27.001Z,6840.00
2019-05-03T07:35:26.973Z,6704.00
2019-05-03T07:36:28.322Z,6224.00
2019-05-03T07:37:26.967Z,6176.00
2019-05-03T07:38:26.990Z,6408.00
2019-05-03T07:39:26.985Z,7204.00
2019-05-03T07:40:27.019Z,7496.00
2019-05-03T07:41:27.315Z,7432.00
2019-05-03T07:42:26.994Z,7452.00
2019-05-03T07:43:27.029Z,7940.00
2019-05-03T07:44:27.013Z,8096.00
2019-05-03T07:45:27.076Z,8508.00
2019-05-03T07:46:27.062Z,9812.00
2019-05-03T07:47:27.029Z,10292.00
2019-05-03T07:48:27.121Z,9188.00
2019-05-03T07:49:27.049Z,8488.00
2019-05-03T07:50:27.102Z,9436.00
2019-05-03T07:51:27.116Z,10088.00
2019-05-03T07:52:27.115Z,9572.00
2019-05-03T07:53:27.123Z,9476.00
2019-05-03T07:54:27.106Z,8332.00
2019-05-03T07:55:27.098Z,7824.00
2019-05-03T07:56:27.130Z,7720.00
2019-05-03T07:57:27.110Z,7204.00
2019-05-03T07:58:27.163Z,6552.00
2019-05-03T07:59:27.146Z,5820.00
2019-05-03T08:00:27.130Z,5684.00
2019-05-03T08:01:27.196Z,6000.00
2019-05-03T08:02:27.622Z,5716.00
2019-05-03T08:03:27.147Z,5704.00
2019-05-03T08:04:27.150Z,5628.00
2019-05-03T08:05:27.189Z,5940.00
2019-05-03T08:06:27.230Z,6088.00
2019-05-03T08:07:27.173Z,6768.00
2019-05-03T08:08:27.197Z,7264.00
2019-05-03T08:09:27.212Z,8260.00
2019-05-03T08:10:27.244Z,9652.00
2019-05-03T08:11:27.198Z,10348.00
2019-05-03T08:12:27.260Z,11132.00
2019-05-03T08:13:27.272Z,11512.00
2019-05-03T08:14:27.218Z,10588.00
2019-05-03T08:15:27.235Z,9208.00
2019-05-03T08:16:27.252Z,8264.00
2019-05-03T08:17:27.303Z,9056.00
2019-05-03T08:18:27.281Z,8920.00
2019-05-03T08:19:27.296Z,7660.00
2019-05-03T08:20:27.327Z,6240.00
2019-05-03T08:21:28.496Z,5628.00
2019-05-03T08:22:27.282Z,5340.00
2019-05-03T08:23:30.191Z,5652.00
2019-05-03T08:24:27.324Z,6372.00
2019-05-03T08:25:27.298Z,7132.00
2019-05-03T08:26:27.311Z,7508.00
2019-05-03T08:27:27.370Z,7656.00
2019-05-03T08:28:27.314Z,8064.00
2019-05-03T08:29:27.329Z,9152.00
2019-05-03T08:30:27.390Z,9784.00
2019-05-03T08:31:27.368Z,10000.00
2019-05-03T08:32:27.349Z,11244.00
2019-05-03T08:33:27.394Z,12272.00
2019-05-03T08:34:27.367Z,13140.00
2019-05-03T08:35:27.387Z,12160.00
2019-05-03T08:36:27.377Z,10624.00
2019-05-03T08:37:28.098Z,8248.00
2019-05-03T08:38:27.439Z,6860.00
2019-05-03T08:39:27.407Z,6156.00
2019-05-03T08:40:27.408Z,4880.00
2019-05-03T08:41:27.404Z,5164.00
2019-05-03T08:42:27.479Z,5128.00
2019-05-03T08:43:27.498Z,5876.00
2019-05-03T08:44:27.443Z,6628.00
2019-05-03T08:45:27.443Z,6656.00
2019-05-03T08:46:27.444Z,6288.00
2019-05-03T08:47:27.453Z,6980.00
2019-05-03T08:48:27.467Z,8560.00
2019-05-03T08:49:27.535Z,10184.00
2019-05-03T08:50:27.485Z,10944.00
2019-05-03T08:51:27.472Z,10540.00
2019-05-03T08:52:27.496Z,9468.00
2019-05-03T08:53:27.540Z,9876.00
2019-05-03T08:54:27.586Z,9844.00
2019-05-03T08:55:27.514Z,9936.00
2019-05-03T08:56:27.550Z,8800.00
2019-05-03T08:57:27.537Z,8056.00
2019-05-03T08:58:27.529Z,7568.00
2019-05-03T08:59:32.292Z,7424.00
2019-05-03T09:00:27.602Z,6856.00
2019-05-03T09:01:27.548Z,6116.00
2019-05-03T09:02:27.552Z,5972.00
2019-05-03T09:03:27.600Z,5980.00
2019-05-03T09:04:36.062Z,6776.00
2019-05-03T09:05:27.602Z,7552.00
2019-05-03T09:06:27.575Z,8196.00
2019-05-03T09:07:27.591Z,8956.00
2019-05-03T09:08:27.606Z,10108.00
2019-05-03T09:09:27.690Z,11588.00
2019-05-03T09:10:27.649Z,11796.00
2019-05-03T09:11:33.614Z,11912.00
2019-05-03T09:12:27.700Z,11796.00
2019-05-03T09:13:27.630Z,11384.00
2019-05-03T09:14:38.743Z,10512.00
2019-05-03T09:15:27.689Z,9916.00
2019-05-03T09:16:27.689Z,9836.00
2019-05-03T09:17:27.655Z,10164.00
2019-05-03T09:18:27.716Z,10184.00
2019-05-03T09:19:27.677Z,9560.00
2019-05-03T09:20:27.678Z,9548.00
2019-05-03T09:21:27.740Z,8544.00
2019-05-03T09:22:27.693Z,7720.00
2019-05-03T09:23:28.656Z,6684.00
2019-05-03T09:24:27.707Z,6436.00
2019-05-03T09:25:27.757Z,7220.00
2019-05-03T09:26:29.470Z,9000.00
2019-05-03T09:27:27.761Z,11096.00
2019-05-03T09:28:29.216Z,12300.00
2019-05-03T09:29:40.003Z,12080.00
2019-05-03T09:30:27.800Z,10876.00
2019-05-03T09:31:27.762Z,9648.00
2019-05-03T09:32:27.865Z,8644.00
2019-05-03T09:33:27.779Z,7908.00
2019-05-03T09:34:27.778Z,7948.00
2019-05-03T09:35:32.823Z,8364.00
2019-05-03T09:36:27.821Z,8620.00
2019-05-03T09:37:27.791Z,8956.00
2019-05-03T09:38:27.836Z,8912.00
2019-05-03T09:39:27.822Z,9452.00
2019-05-03T09:40:27.856Z,10496.00
2019-05-03T09:41:31.142Z,10452.00
2019-05-03T09:42:27.917Z,9620.00
2019-05-03T09:43:27.874Z,7948.00
2019-05-03T09:44:27.934Z,6812.00
2019-05-03T09:45:27.859Z,5808.00
2019-05-03T09:46:27.890Z,5716.00
2019-05-03T09:47:28.020Z,5796.00
2019-05-03T09:48:27.906Z,6100.00
2019-05-03T09:49:27.878Z,6708.00
2019-05-03T09:50:27.938Z,8696.00
2019-05-03T09:51:27.939Z,11044.00
2019-05-03T09:52:27.912Z,12896.00
2019-05-03T09:53:27.913Z,14052.00
2019-05-03T09:54:27.927Z,13720.00
2019-05-03T09:55:27.953Z,13208.00
2019-05-03T09:56:27.969Z,11868.00
2019-05-03T09:57:27.957Z,9796.00
2019-05-03T09:58:27.950Z,9132.00
2019-05-03T09:59:27.999Z,8400.00
2019-05-03T10:00:27.993Z,7792.00
2019-05-03T10:01:27.988Z,7168.00
2019-05-03T10:02:28.010Z,7016.00
2019-05-03T10:03:28.141Z,6512.00
2019-05-03T10:04:27.998Z,5884.00
2019-05-03T10:05:28.001Z,6028.00
2019-05-03T10:06:28.028Z,5664.00
2019-05-03T10:07:28.040Z,5564.00
2019-05-03T10:08:28.027Z,5824.00
2019-05-03T10:09:28.067Z,6208.00
2019-05-03T10:10:28.072Z,7068.00
2019-05-03T10:11:28.053Z,8036.00
2019-05-03T10:12:28.077Z,8564.00
2019-05-03T10:13:28.085Z,8660.00
2019-05-03T10:14:28.107Z,8452.00
2019-05-03T10:15:28.117Z,7748.00
2019-05-03T10:16:28.096Z,7736.00
2019-05-03T10:17:28.110Z,8244.00
2019-05-03T10:18:28.110Z,9112.00
2019-05-03T10:19:37.004Z,9964.00
2019-05-03T10:20:28.125Z,10960.00
2019-05-03T10:21:28.118Z,12172.00
2019-05-03T10:22:28.140Z,13484.00
2019-05-03T10:23:28.168Z,14132.00
2019-05-03T10:24:28.137Z,13808.00
2019-05-03T10:25:28.185Z,12852.00
2019-05-03T10:26:28.240Z,12100.00
2019-05-03T10:27:28.171Z,11872.00
2019-05-03T10:28:28.197Z,12036.00
2019-05-03T10:29:28.169Z,12484.00
2019-05-03T10:30:28.209Z,13076.00
2019-05-03T10:31:28.312Z,13788.00
2019-05-03T10:32:28.211Z,13584.00
2019-05-03T10:33:28.224Z,12724.00
2019-05-03T10:34:28.223Z,11720.00
2019-05-03T10:35:28.235Z,10508.00
2019-05-03T10:36:28.722Z,10324.00
2019-05-03T10:37:28.230Z,10956.00
2019-05-03T10:38:28.252Z,11360.00
2019-05-03T10:39:28.350Z,10872.00
2019-05-03T10:40:28.272Z,10580.00
2019-05-03T10:41:28.323Z,10508.00
2019-05-03T10:42:28.278Z,11008.00
2019-05-03T10:43:28.316Z,11156.00
2019-05-03T10:44:28.317Z,10724.00
2019-05-03T10:45:28.322Z,10204.00
2019-05-03T10:46:28.308Z,10176.00
2019-05-03T10:47:28.358Z,10212.00
2019-05-03T10:48:28.433Z,10488.00
2019-05-03T10:49:28.353Z,10796.00
2019-05-03T10:50:28.346Z,11036.00
2019-05-03T10:51:28.374Z,11264.00
2019-05-03T10:52:28.416Z,11924.00
2019-05-03T10:53:28.371Z,12556.00
2019-05-03T10:54:28.379Z,13228.00
2019-05-03T10:55:28.396Z,12880.00
2019-05-03T10:56:28.396Z,11812.00
2019-05-03T10:57:28.399Z,10516.00
2019-05-03T10:58:28.462Z,9616.00
2019-05-03T10:59:28.412Z,8844.00
2019-05-03T11:00:50.215Z,8300.00
2019-05-03T11:01:28.463Z,8232.00
2019-05-03T11:02:28.462Z,8692.00
2019-05-03T11:03:28.494Z,9908.00
2019-05-03T11:04:28.485Z,10884.00
2019-05-03T11:05:28.468Z,10744.00
2019-05-03T11:06:28.465Z,10596.00
2019-05-03T11:07:28.494Z,10456.00
2019-05-03T11:08:28.533Z,10452.00
2019-05-03T11:09:28.544Z,10708.00
2019-05-03T11:10:28.496Z,10764.00
2019-05-03T11:11:28.543Z,10604.00
2019-05-03T11:12:28.512Z,9148.00
2019-05-03T11:13:28.557Z,7924.00
2019-05-03T11:14:28.530Z,6952.00
2019-05-03T11:15:28.575Z,6280.00
2019-05-03T11:16:28.574Z,6240.00
2019-05-03T11:17:28.561Z,6848.00
2019-05-03T11:18:28.593Z,7840.00
2019-05-03T11:19:28.573Z,9152.00
2019-05-03T11:20:32.022Z,10316.00
2019-05-03T11:21:31.077Z,11368.00
2019-05-03T11:22:28.597Z,11760.00
2019-05-03T11:23:28.624Z,11080.00
2019-05-03T11:24:28.670Z,10012.00
2019-05-03T11:25:28.631Z,9364.00
2019-05-03T11:26:28.644Z,8744.00
2019-05-03T11:27:28.658Z,8732.00
2019-05-03T11:28:28.658Z,8652.00
2019-05-03T11:29:28.662Z,8752.00
2019-05-03T11:30:28.690Z,9212.00
2019-05-03T11:31:28.700Z,9224.00
2019-05-03T11:32:28.707Z,9844.00
2019-05-03T11:33:28.695Z,10460.00
2019-05-03T11:34:28.704Z,10940.00
2019-05-03T11:35:28.702Z,10756.00
2019-05-03T11:36:31.523Z,9872.00
2019-05-03T11:37:28.716Z,9240.00
2019-05-03T11:38:28.724Z,8288.00
2019-05-03T11:39:28.779Z,7624.00
2019-05-03T11:40:28.752Z,7276.00
2019-05-03T11:41:32.516Z,7096.00
2019-05-03T11:42:28.784Z,6772.00
2019-05-03T11:43:28.780Z,6676.00
2019-05-03T11:44:28.799Z,6936.00
2019-05-03T11:45:28.815Z,7700.00
2019-05-03T11:46:28.800Z,8096.00
2019-05-03T11:47:28.846Z,8436.00
2019-05-03T11:48:28.831Z,8088.00
2019-05-03T11:49:28.837Z,7708.00
2019-05-03T11:50:28.851Z,7668.00
2019-05-03T11:51:28.858Z,8644.00
2019-05-03T11:52:28.873Z,10272.00
2019-05-03T11:53:28.883Z,11472.00
2019-05-03T11:54:28.851Z,12588.00
2019-05-03T11:55:28.856Z,13508.00
2019-05-03T11:56:28.882Z,14452.00
2019-05-03T11:57:28.908Z,14820.00
2019-05-03T11:58:28.921Z,14332.00
2019-05-03T11:59:29.293Z,13364.00
2019-05-03T12:00:28.913Z,13132.00
2019-05-03T12:01:28.919Z,12944.00
2019-05-03T12:02:29.051Z,12900.00
2019-05-03T12:03:29.976Z,12636.00
2019-05-03T12:04:28.940Z,12844.00
2019-05-03T12:05:28.941Z,13288.00
2019-05-03T12:06:28.973Z,13100.00
2019-05-03T12:07:38.536Z,13024.00
2019-05-03T12:08:28.995Z,12532.00
2019-05-03T12:09:28.998Z,11428.00
2019-05-03T12:10:46.757Z,10392.00
2019-05-03T12:11:29.008Z,9776.00
2019-05-03T12:12:29.531Z,10060.00
2019-05-03T12:13:29.078Z,11220.00
2019-05-03T12:14:29.009Z,12552.00
2019-05-03T12:15:29.029Z,13612.00
2019-05-03T12:17:10.378Z,14252.00
2019-05-03T12:17:29.933Z,14264.00
2019-05-03T12:18:29.204Z,13900.00
2019-05-03T12:19:31.566Z,13524.00
2019-05-03T12:20:30.577Z,12624.00
2019-05-03T12:21:30.275Z,11400.00
2019-05-03T12:22:29.723Z,10400.00
2019-05-03T12:23:31.557Z,9820.00
2019-05-03T12:24:29.654Z,9660.00
2019-05-03T12:25:29.669Z,9536.00
2019-05-03T12:26:40.580Z,9612.00
2019-05-03T12:27:29.128Z,9572.00
2019-05-03T12:28:29.161Z,9572.00
2019-05-03T12:29:29.180Z,9580.00
2019-05-03T12:30:29.303Z,9492.00
2019-05-03T12:31:37.092Z,9472.00
2019-05-03T12:32:29.267Z,9392.00
2019-05-03T12:33:29.266Z,9248.00
2019-05-03T12:34:29.227Z,9252.00
2019-05-03T12:35:29.285Z,9516.00
2019-05-03T12:36:29.242Z,9776.00
2019-05-03T12:37:29.227Z,9848.00
2019-05-03T12:38:29.233Z,9912.00
2019-05-03T12:39:30.637Z,9948.00
2019-05-03T12:40:29.267Z,10032.00
2019-05-03T12:41:29.263Z,10160.00
2019-05-03T12:42:29.297Z,10412.00
2019-05-03T12:43:29.270Z,10720.00
2019-05-03T12:44:29.273Z,11120.00
2019-05-03T12:45:29.283Z,11372.00
2019-05-03T12:46:29.345Z,11352.00
2019-05-03T12:47:29.295Z,11364.00
2019-05-03T12:48:29.302Z,11252.00
2019-05-03T12:49:29.322Z,11048.00
2019-05-03T12:50:29.394Z,10840.00
2019-05-03T12:51:29.397Z,10648.00
2019-05-03T12:52:30.060Z,10564.00
2019-05-03T12:53:29.354Z,10704.00
2019-05-03T12:54:29.447Z,11060.00
2019-05-03T12:55:29.357Z,11484.00
2019-05-03T12:56:32.819Z,11884.00
2019-05-03T12:57:29.430Z,12244.00
2019-05-03T12:58:29.434Z,12608.00
2019-05-03T12:59:29.426Z,12484.00
2019-05-03T13:00:29.398Z,12376.00
2019-05-03T13:01:40.953Z,12364.00
2019-05-03T13:02:29.486Z,12708.00
2019-05-03T13:03:29.430Z,12816.00
2019-05-03T13:04:29.490Z,12664.00
2019-05-03T13:05:29.575Z,12384.00
2019-05-03T13:06:29.449Z,11984.00
2019-05-03T13:07:29.697Z,11252.00
2019-05-03T13:08:29.462Z,10744.00
2019-05-03T13:09:29.520Z,9932.00
2019-05-03T13:10:29.520Z,9164.00
2019-05-03T13:11:29.716Z,8460.00
2019-05-03T13:12:29.504Z,8016.00
2019-05-03T13:13:29.533Z,7856.00
2019-05-03T13:14:29.545Z,7880.00
2019-05-03T13:15:29.553Z,7900.00
2019-05-03T13:16:29.545Z,7836.00
2019-05-03T13:17:29.618Z,7600.00
2019-05-03T13:18:29.579Z,7584.00
2019-05-03T13:19:29.684Z,7944.00
2019-05-03T13:20:29.633Z,8796.00
2019-05-03T13:21:29.668Z,9964.00
2019-05-03T13:22:29.599Z,11344.00
2019-05-03T13:23:29.606Z,13096.00
2019-05-03T13:24:29.599Z,14204.00
2019-05-03T13:25:29.622Z,14496.00
2019-05-03T13:26:29.652Z,14020.00
2019-05-03T13:27:29.642Z,13392.00
2019-05-03T13:28:29.649Z,12848.00
2019-05-03T13:29:29.633Z,12336.00
2019-05-03T13:30:29.645Z,11912.00
2019-05-03T13:31:29.691Z,11408.00
2019-05-03T13:32:29.665Z,10840.00
2019-05-03T13:33:29.705Z,9960.00
2019-05-03T13:34:29.704Z,8732.00
2019-05-03T13:35:29.687Z,7536.00
2019-05-03T13:36:29.748Z,6292.00
2019-05-03T13:37:29.713Z,5380.00
2019-05-03T13:38:29.713Z,4968.00
2019-05-03T13:39:29.740Z,4952.00
2019-05-03T13:40:29.733Z,4972.00
2019-05-03T13:41:29.795Z,4832.00
2019-05-03T13:42:29.800Z,4796.00
2019-05-03T13:43:29.771Z,5016.00
2019-05-03T13:44:29.800Z,5632.00
2019-05-03T13:45:29.840Z,6328.00
2019-05-03T13:46:29.805Z,7136.00
2019-05-03T13:47:29.822Z,8332.00
2019-05-03T13:48:41.636Z,9792.00
2019-05-03T13:49:29.844Z,10952.00
2019-05-03T13:50:29.854Z,11676.00
2019-05-03T13:51:29.858Z,11876.00
2019-05-03T13:52:29.898Z,11688.00
2019-05-03T13:53:29.846Z,11452.00
2019-05-03T13:54:29.858Z,11284.00
2019-05-03T13:55:29.846Z,11288.00
2019-05-03T13:56:29.874Z,11052.00
2019-05-03T13:57:29.897Z,10484.00
2019-05-03T13:58:29.939Z,10076.00
2019-05-03T13:59:29.886Z,9960.00
2019-05-03T14:00:29.881Z,10192.00
2019-05-03T14:01:29.905Z,10360.00
2019-05-03T14:02:29.990Z,10440.00
2019-05-03T14:03:29.914Z,10364.00
2019-05-03T14:04:29.962Z,9960.00
2019-05-03T14:05:29.922Z,9648.00
2019-05-03T14:06:33.360Z,9904.00
2019-05-03T14:07:29.953Z,10532.00
2019-05-03T14:08:29.970Z,11480.00
2019-05-03T14:09:30.019Z,12544.00
2019-05-03T14:10:29.980Z,13324.00
2019-05-03T14:11:29.985Z,13800.00
2019-05-03T14:12:29.992Z,14020.00
2019-05-03T14:13:30.062Z,14196.00
2019-05-03T14:14:30.014Z,14332.00
2019-05-03T14:15:30.008Z,14004.00
2019-05-03T14:16:30.042Z,13320.00
2019-05-03T14:17:30.043Z,13008.00
2019-05-03T14:18:30.063Z,12800.00
2019-05-03T14:19:30.039Z,12148.00
2019-05-03T14:20:30.096Z,11760.00
2019-05-03T14:21:30.099Z,11112.00
2019-05-03T14:22:30.064Z,10684.00
2019-05-03T14:23:30.088Z,10456.00
2019-05-03T14:24:30.144Z,10484.00
2019-05-03T14:25:30.101Z,10640.00
2019-05-03T14:26:30.093Z,10464.00
2019-05-03T14:27:30.136Z,10372.00
2019-05-03T14:28:30.143Z,9984.00
2019-05-03T14:29:30.177Z,9008.00
2019-05-03T14:30:30.135Z,7600.00
2019-05-03T14:31:30.153Z,6180.00
2019-05-03T14:32:30.242Z,5028.00
2019-05-03T14:33:30.182Z,4040.00
2019-05-03T14:34:30.192Z,3240.00
2019-05-03T14:35:30.199Z,2648.00
2019-05-03T14:36:30.228Z,2224.00
2019-05-03T14:37:30.211Z,1904.00
2019-05-03T14:38:30.218Z,1664.00
2019-05-03T14:39:30.250Z,1544.00
2019-05-03T14:40:30.464Z,1536.00
2019-05-03T14:41:30.253Z,1616.00
2019-05-03T14:42:30.225Z,1656.00
2019-05-03T14:43:30.281Z,1648.00
2019-05-03T14:44:30.274Z,1672.00
2019-05-03T14:45:30.306Z,1808.00
2019-05-03T14:46:33.312Z,2128.00
2019-05-03T14:47:30.305Z,2512.00
2019-05-03T14:48:30.277Z,2948.00
2019-05-03T14:49:30.309Z,3516.00
2019-05-03T14:50:30.311Z,4088.00
2019-05-03T14:51:30.323Z,4356.00
2019-05-03T14:52:30.360Z,4360.00
2019-05-03T14:53:30.366Z,4440.00
2019-05-03T14:54:30.331Z,4500.00
2019-05-03T14:55:30.366Z,4696.00
2019-05-03T14:56:30.432Z,4884.00
2019-05-03T14:57:30.360Z,4920.00
2019-05-03T14:58:30.375Z,4912.00
2019-05-03T14:59:30.408Z,4868.00
2019-05-03T15:00:30.390Z,4844.00
2019-05-03T15:01:30.415Z,4904.00
2019-05-03T15:02:42.462Z,5184.00
2019-05-03T15:03:30.838Z,5540.00
2019-05-03T15:04:30.455Z,5928.00
2019-05-03T15:05:30.440Z,6412.00
2019-05-03T15:06:30.419Z,6928.00
2019-05-03T15:07:30.437Z,7416.00
2019-05-03T15:08:30.501Z,7836.00
2019-05-03T15:09:30.469Z,8028.00
2019-05-03T15:10:30.523Z,8020.00
2019-05-03T15:11:30.512Z,7944.00
2019-05-03T15:12:30.555Z,7880.00
2019-05-03T15:13:30.912Z,7744.00
2019-05-03T15:14:30.626Z,7448.00
2019-05-03T15:15:30.501Z,7048.00
2019-05-03T15:16:30.488Z,6800.00
2019-05-03T15:17:30.534Z,6420.00
2019-05-03T15:18:30.545Z,6068.00
2019-05-03T15:19:30.601Z,5728.00
2019-05-03T15:20:30.524Z,5252.00
2019-05-03T15:21:30.683Z,4824.00
2019-05-03T15:22:30.540Z,4596.00
2019-05-03T15:23:30.561Z,4504.00
2019-05-03T15:24:30.742Z,4572.00
2019-05-03T15:25:30.563Z,4840.00
2019-05-03T15:26:30.555Z,5096.00
2019-05-03T15:27:30.597Z,5188.00
2019-05-03T15:28:30.591Z,4996.00
2019-05-03T15:29:30.793Z,4784.00
2019-05-03T15:30:30.669Z,4632.00
2019-05-03T15:31:30.599Z,4492.00
2019-05-03T15:32:30.694Z,4396.00
2019-05-03T15:33:30.617Z,4300.00
2019-05-03T15:34:30.639Z,4236.00
2019-05-03T15:35:30.721Z,4288.00
2019-05-03T15:36:30.866Z,4232.00
2019-05-03T15:37:30.637Z,4028.00
2019-05-03T15:38:30.650Z,3776.00
2019-05-03T15:39:30.732Z,3652.00
2019-05-03T15:40:30.661Z,3728.00
2019-05-03T15:41:30.733Z,3788.00
2019-05-03T15:42:30.676Z,3780.00
2019-05-03T15:43:30.695Z,3900.00
2019-05-03T15:44:30.684Z,4000.00
2019-05-03T15:45:30.698Z,4104.00
2019-05-03T15:46:30.750Z,4108.00
2019-05-03T15:47:30.713Z,3996.00
2019-05-03T15:48:30.726Z,4012.00
2019-05-03T15:49:30.749Z,4156.00
2019-05-03T15:50:30.753Z,4172.00
2019-05-03T15:51:30.766Z,4272.00
2019-05-03T15:52:30.762Z,4456.00
2019-05-03T15:53:30.775Z,4504.00
2019-05-03T15:54:30.767Z,4460.00
2019-05-03T15:55:30.761Z,4608.00
2019-05-03T15:56:30.779Z,4844.00
2019-05-03T15:57:30.784Z,5028.00
2019-05-03T15:58:30.811Z,5172.00
2019-05-03T15:59:30.793Z,4972.00
2019-05-03T16:00:31.230Z,4724.00
2019-05-03T16:01:30.825Z,4580.00
2019-05-03T16:02:30.854Z,4472.00
2019-05-03T16:03:30.844Z,4532.00
2019-05-03T16:04:30.852Z,4740.00
2019-05-03T16:05:31.046Z,4960.00
2019-05-03T16:06:30.844Z,5068.00
2019-05-03T16:07:30.859Z,5128.00
2019-05-03T16:08:30.948Z,5028.00
2019-05-03T16:09:30.894Z,4856.00
2019-05-03T16:10:31.764Z,4740.00
2019-05-03T16:11:31.004Z,4808.00
2019-05-03T16:12:30.912Z,4952.00
2019-05-03T16:13:31.052Z,5064.00
2019-05-03T16:14:30.982Z,5132.00
2019-05-03T16:15:30.926Z,5148.00
2019-05-03T16:16:30.910Z,5076.00
2019-05-03T16:17:30.924Z,4984.00
2019-05-03T16:18:30.999Z,4956.00
2019-05-03T16:19:30.933Z,5096.00
2019-05-03T16:20:30.944Z,5412.00
2019-05-03T16:21:31.078Z,5504.00
2019-05-03T16:22:30.983Z,5388.00
2019-05-03T16:23:30.954Z,5244.00
2019-05-03T16:24:30.999Z,5132.00
2019-05-03T16:25:30.999Z,5068.00
2019-05-03T16:26:31.001Z,5104.00
2019-05-03T16:27:30.988Z,5132.00
2019-05-03T16:28:31.023Z,5024.00
2019-05-03T16:29:31.095Z,4764.00
2019-05-03T16:30:31.023Z,4580.00
2019-05-03T16:31:31.018Z,4512.00
2019-05-03T16:32:31.049Z,4492.00
2019-05-03T16:33:31.067Z,4380.00
2019-05-03T16:34:31.053Z,4292.00
2019-05-03T16:35:31.055Z,4256.00
2019-05-03T16:36:31.077Z,4144.00
2019-05-03T16:37:31.075Z,3928.00
2019-05-03T16:38:31.061Z,3712.00
2019-05-03T16:39:31.094Z,3604.00
2019-05-03T16:40:31.194Z,3676.00
2019-05-03T16:41:31.146Z,3744.00
2019-05-03T16:42:31.405Z,3880.00
2019-05-03T16:43:31.119Z,4128.00
2019-05-03T16:44:31.120Z,4448.00
2019-05-03T16:45:31.126Z,4652.00
2019-05-03T16:46:31.117Z,4844.00
2019-05-03T16:47:31.220Z,5072.00
2019-05-03T16:48:31.134Z,5256.00
2019-05-03T16:49:31.155Z,5372.00
2019-05-03T16:50:31.167Z,5388.00
2019-05-03T16:51:31.183Z,5456.00
2019-05-03T16:52:31.196Z,5596.00
2019-05-03T16:53:31.186Z,5732.00
2019-05-03T16:54:31.297Z,5876.00
2019-05-03T16:55:31.251Z,5936.00
2019-05-03T16:56:31.183Z,5928.00
2019-05-03T16:57:31.214Z,5940.00
2019-05-03T16:58:31.227Z,5964.00
2019-05-03T16:59:32.192Z,5828.00
2019-05-03T17:00:31.229Z,5624.00
2019-05-03T17:01:31.251Z,5540.00
2019-05-03T17:02:31.284Z,5580.00
2019-05-03T17:03:38.656Z,5288.00
2019-05-03T17:04:31.264Z,4896.00
2019-05-03T17:05:31.419Z,4548.00
2019-05-03T17:06:31.314Z,4168.00
2019-05-03T17:07:31.304Z,3892.00
2019-05-03T17:08:31.339Z,3732.00
2019-05-03T17:09:31.277Z,3620.00
2019-05-03T17:10:31.358Z,3464.00
2019-05-03T17:11:31.330Z,3292.00
2019-05-03T17:12:31.352Z,3168.00
2019-05-03T17:13:31.334Z,3088.00
2019-05-03T17:14:31.364Z,2984.00
2019-05-03T17:15:31.593Z,2884.00
2019-05-03T17:16:31.379Z,2828.00
2019-05-03T17:17:31.366Z,2808.00
2019-05-03T17:18:31.351Z,2800.00
2019-05-03T17:19:31.439Z,2776.00
2019-05-03T17:20:32.154Z,2728.00
2019-05-03T17:21:31.432Z,2652.00